sensor_id;sensor_type;location;lat;lon;timestamp;temperature;humidity
51908;DHT22;39320;53.214;6.556;2023-01-28T00:01:47;4.00;99.90
51908;DHT22;39320;53.214;6.556;2023-01-28T00:04:13;4.10;99.90
51908;DHT22;39320;53.214;6.556;2023-01-28T00:06:40;4.10;99.90
51908;DHT22;39320;53.214;6.556;2023-01-28T00:09:06;4.10;99.90
51908;DHT22;39320;53.214;6.556;2023-01-28T00:11:31;4.10;99.90
51908;DHT22;39320;53.214;6.556;2023-01-28T00:13:58;4.20;99.90
51908;DHT22;39320;53.214;6.556;2023-01-28T00:16:24;4.10;99.90
51908;DHT22;39320;53.214;6.556;2023-01-28T00:18:54;4.20;99.90
51908;DHT22;39320;53.214;6.556;2023-01-28T00:21:20;4.20;99.90
51908;DHT22;39320;53.214;6.556;2023-01-28T00:23:52;4.20;99.90
51908;DHT22;39320;53.214;6.556;2023-01-28T00:26:19;4.30;99.90
51908;DHT22;39320;53.214;6.556;2023-01-28T00:28:45;4.60;99.90
51908;DHT22;39320;53.214;6.556;2023-01-28T00:31:19;4.20;99.90
51908;DHT22;39320;53.214;6.556;2023-01-28T00:33:47;4.20;99.90
51908;DHT22;39320;53.214;6.556;2023-01-28T00:36:14;4.20;99.90
51908;DHT22;39320;53.214;6.556;2023-01-28T00:38:40;4.40;99.90
51908;DHT22;39320;53.214;6.556;2023-01-28T00:41:12;4.20;99.90
51908;DHT22;39320;53.214;6.556;2023-01-28T00:43:38;4.50;99.90
51908;DHT22;39320;53.214;6.556;2023-01-28T00:46:06;4.20;99.90
51908;DHT22;39320;53.214;6.556;2023-01-28T00:48:33;4.20;99.90
51908;DHT22;39320;53.214;6.556;2023-01-28T00:50:59;4.20;99.90
51908;DHT22;39320;53.214;6.556;2023-01-28T00:53:25;4.20;99.90
51908;DHT22;39320;53.214;6.556;2023-01-28T00:55:51;4.20;99.90
51908;DHT22;39320;53.214;6.556;2023-01-28T00:58:18;4.20;99.90
51908;DHT22;39320;53.214;6.556;2023-01-28T01:00:44;5.60;99.90
51908;DHT22;39320;53.214;6.556;2023-01-28T01:03:10;4.20;99.90
51908;DHT22;39320;53.214;6.556;2023-01-28T01:05:35;4.20;99.90
51908;DHT22;39320;53.214;6.556;2023-01-28T01:08:01;4.10;99.90
51908;DHT22;39320;53.214;6.556;2023-01-28T01:10:27;4.10;99.90
51908;DHT22;39320;53.214;6.556;2023-01-28T01:12:52;4.10;99.90
51908;DHT22;39320;53.214;6.556;2023-01-28T01:15:18;4.10;99.90
51908;DHT22;39320;53.214;6.556;2023-01-28T01:17:48;4.10;99.90
51908;DHT22;39320;53.214;6.556;2023-01-28T01:20:17;4.10;99.90
51908;DHT22;39320;53.214;6.556;2023-01-28T01:22:43;4.10;99.90
51908;DHT22;39320;53.214;6.556;2023-01-28T01:25:11;4.10;99.90
51908;DHT22;39320;53.214;6.556;2023-01-28T01:27:37;4.10;99.90
51908;DHT22;39320;53.214;6.556;2023-01-28T01:30:03;5.00;99.90
51908;DHT22;39320;53.214;6.556;2023-01-28T01:32:30;4.10;99.90
51908;DHT22;39320;53.214;6.556;2023-01-28T01:34:57;4.10;99.90
51908;DHT22;39320;53.214;6.556;2023-01-28T01:37:22;4.10;99.90
51908;DHT22;39320;53.214;6.556;2023-01-28T01:39:48;4.20;99.90
51908;DHT22;39320;53.214;6.556;2023-01-28T01:42:14;5.10;99.90
51908;DHT22;39320;53.214;6.556;2023-01-28T01:47:20;4.20;99.90
51908;DHT22;39320;53.214;6.556;2023-01-28T01:49:47;4.20;99.90
51908;DHT22;39320;53.214;6.556;2023-01-28T01:52:17;4.70;99.90
51908;DHT22;39320;53.214;6.556;2023-01-28T01:54:46;4.20;99.90
51908;DHT22;39320;53.214;6.556;2023-01-28T01:57:24;4.90;99.90
51908;DHT22;39320;53.214;6.556;2023-01-28T01:59:51;4.20;99.90
51908;DHT22;39320;53.214;6.556;2023-01-28T02:02:18;4.70;99.90
51908;DHT22;39320;53.214;6.556;2023-01-28T02:04:44;4.20;99.90
51908;DHT22;39320;53.214;6.556;2023-01-28T02:07:12;4.30;99.90
51908;DHT22;39320;53.214;6.556;2023-01-28T02:09:39;4.20;99.90
51908;DHT22;39320;53.214;6.556;2023-01-28T02:12:12;4.20;99.90
51908;DHT22;39320;53.214;6.556;2023-01-28T02:14:46;4.20;99.90
51908;DHT22;39320;53.214;6.556;2023-01-28T02:17:13;4.20;99.90
51908;DHT22;39320;53.214;6.556;2023-01-28T02:22:27;4.20;99.90
51908;DHT22;39320;53.214;6.556;2023-01-28T02:27:56;4.20;99.90
51908;DHT22;39320;53.214;6.556;2023-01-28T02:30:41;4.10;99.90
51908;DHT22;39320;53.214;6.556;2023-01-28T02:33:18;4.10;99.90
51908;DHT22;39320;53.214;6.556;2023-01-28T02:35:53;4.00;99.90
51908;DHT22;39320;53.214;6.556;2023-01-28T02:40:55;4.00;99.90
51908;DHT22;39320;53.214;6.556;2023-01-28T02:43:39;4.00;99.90
51908;DHT22;39320;53.214;6.556;2023-01-28T02:49:35;4.00;99.90
51908;DHT22;39320;53.214;6.556;2023-01-28T02:52:28;4.00;99.90
51908;DHT22;39320;53.214;6.556;2023-01-28T02:58:06;4.00;99.90
51908;DHT22;39320;53.214;6.556;2023-01-28T03:00:49;3.90;99.90
51908;DHT22;39320;53.214;6.556;2023-01-28T03:03:35;4.00;99.90
51908;DHT22;39320;53.214;6.556;2023-01-28T03:06:12;4.40;99.90
51908;DHT22;39320;53.214;6.556;2023-01-28T03:08:44;4.00;99.90
51908;DHT22;39320;53.214;6.556;2023-01-28T03:11:33;4.70;99.90
51908;DHT22;39320;53.214;6.556;2023-01-28T03:14:20;4.60;99.90
51908;DHT22;39320;53.214;6.556;2023-01-28T03:17:09;4.00;99.90
51908;DHT22;39320;53.214;6.556;2023-01-28T03:19:55;4.00;99.90
51908;DHT22;39320;53.214;6.556;2023-01-28T03:22:40;4.00;99.90
51908;DHT22;39320;53.214;6.556;2023-01-28T03:25:26;4.00;99.90
51908;DHT22;39320;53.214;6.556;2023-01-28T03:28:15;4.00;99.90
51908;DHT22;39320;53.214;6.556;2023-01-28T03:33:50;4.00;99.90
51908;DHT22;39320;53.214;6.556;2023-01-28T03:36:38;4.00;99.90
51908;DHT22;39320;53.214;6.556;2023-01-28T03:39:24;4.00;99.90
51908;DHT22;39320;53.214;6.556;2023-01-28T03:42:01;3.90;99.90
51908;DHT22;39320;53.214;6.556;2023-01-28T03:44:27;3.90;99.90
51908;DHT22;39320;53.214;6.556;2023-01-28T03:47:12;4.60;99.90
51908;DHT22;39320;53.214;6.556;2023-01-28T03:49:42;4.00;99.90
51908;DHT22;39320;53.214;6.556;2023-01-28T03:52:15;3.90;99.90
51908;DHT22;39320;53.214;6.556;2023-01-28T03:54:41;3.90;99.90
51908;DHT22;39320;53.214;6.556;2023-01-28T03:57:07;3.90;99.90
51908;DHT22;39320;53.214;6.556;2023-01-28T03:59:33;3.90;99.90
51908;DHT22;39320;53.214;6.556;2023-01-28T04:01:59;4.70;99.90
51908;DHT22;39320;53.214;6.556;2023-01-28T04:04:28;4.60;99.90
51908;DHT22;39320;53.214;6.556;2023-01-28T04:06:54;3.90;99.90
51908;DHT22;39320;53.214;6.556;2023-01-28T04:09:20;3.90;99.90
51908;DHT22;39320;53.214;6.556;2023-01-28T04:11:47;3.90;99.90
51908;DHT22;39320;53.214;6.556;2023-01-28T04:14:13;3.90;99.90
51908;DHT22;39320;53.214;6.556;2023-01-28T04:16:40;3.90;99.90
51908;DHT22;39320;53.214;6.556;2023-01-28T04:19:08;3.90;99.90
51908;DHT22;39320;53.214;6.556;2023-01-28T04:21:34;3.80;99.90
51908;DHT22;39320;53.214;6.556;2023-01-28T04:24:00;4.40;99.90
51908;DHT22;39320;53.214;6.556;2023-01-28T04:26:27;3.80;99.90
51908;DHT22;39320;53.214;6.556;2023-01-28T04:28:53;3.80;99.90
51908;DHT22;39320;53.214;6.556;2023-01-28T04:31:18;3.80;99.90
51908;DHT22;39320;53.214;6.556;2023-01-28T04:33:44;3.70;99.90
51908;DHT22;39320;53.214;6.556;2023-01-28T04:36:10;3.80;99.90
51908;DHT22;39320;53.214;6.556;2023-01-28T04:38:36;4.40;99.90
51908;DHT22;39320;53.214;6.556;2023-01-28T04:41:01;3.80;99.90
51908;DHT22;39320;53.214;6.556;2023-01-28T04:43:27;3.70;99.90
51908;DHT22;39320;53.214;6.556;2023-01-28T04:45:53;3.90;99.90
51908;DHT22;39320;53.214;6.556;2023-01-28T04:48:18;3.70;99.90
51908;DHT22;39320;53.214;6.556;2023-01-28T04:50:44;3.80;99.90
51908;DHT22;39320;53.214;6.556;2023-01-28T04:53:11;3.70;99.90
51908;DHT22;39320;53.214;6.556;2023-01-28T04:55:36;3.90;99.90
51908;DHT22;39320;53.214;6.556;2023-01-28T04:58:02;3.60;99.90
51908;DHT22;39320;53.214;6.556;2023-01-28T05:00:28;3.80;99.90
51908;DHT22;39320;53.214;6.556;2023-01-28T05:02:54;3.70;99.90
51908;DHT22;39320;53.214;6.556;2023-01-28T05:05:20;3.70;99.90
51908;DHT22;39320;53.214;6.556;2023-01-28T05:07:53;4.20;99.90
51908;DHT22;39320;53.214;6.556;2023-01-28T05:10:20;3.60;99.90
51908;DHT22;39320;53.214;6.556;2023-01-28T05:12:47;3.70;99.90
51908;DHT22;39320;53.214;6.556;2023-01-28T05:15:17;3.60;99.90
51908;DHT22;39320;53.214;6.556;2023-01-28T05:17:43;3.70;99.90
51908;DHT22;39320;53.214;6.556;2023-01-28T05:20:10;4.10;99.90
51908;DHT22;39320;53.214;6.556;2023-01-28T05:22:36;3.60;99.90
51908;DHT22;39320;53.214;6.556;2023-01-28T05:25:02;3.60;99.90
51908;DHT22;39320;53.214;6.556;2023-01-28T05:27:29;3.60;99.90
51908;DHT22;39320;53.214;6.556;2023-01-28T05:29:55;3.70;99.90
51908;DHT22;39320;53.214;6.556;2023-01-28T05:32:21;3.60;99.90
51908;DHT22;39320;53.214;6.556;2023-01-28T05:34:47;3.70;99.90
51908;DHT22;39320;53.214;6.556;2023-01-28T05:37:12;3.60;99.90
51908;DHT22;39320;53.214;6.556;2023-01-28T05:39:38;3.60;99.90
51908;DHT22;39320;53.214;6.556;2023-01-28T05:42:04;3.60;99.90
51908;DHT22;39320;53.214;6.556;2023-01-28T05:44:30;3.50;99.90
51908;DHT22;39320;53.214;6.556;2023-01-28T05:46:55;3.50;99.90
51908;DHT22;39320;53.214;6.556;2023-01-28T05:49:22;3.50;99.90
51908;DHT22;39320;53.214;6.556;2023-01-28T05:51:50;3.50;99.90
51908;DHT22;39320;53.214;6.556;2023-01-28T05:54:15;3.50;99.90
51908;DHT22;39320;53.214;6.556;2023-01-28T05:56:41;3.40;99.90
51908;DHT22;39320;53.214;6.556;2023-01-28T05:59:09;3.40;99.90
51908;DHT22;39320;53.214;6.556;2023-01-28T06:01:35;3.50;99.90
51908;DHT22;39320;53.214;6.556;2023-01-28T06:04:01;3.50;99.90
51908;DHT22;39320;53.214;6.556;2023-01-28T06:06:26;3.40;99.90
51908;DHT22;39320;53.214;6.556;2023-01-28T06:08:52;4.10;99.90
51908;DHT22;39320;53.214;6.556;2023-01-28T06:11:18;3.40;99.90
51908;DHT22;39320;53.214;6.556;2023-01-28T06:13:43;3.40;99.90
51908;DHT22;39320;53.214;6.556;2023-01-28T06:16:09;3.40;99.90
51908;DHT22;39320;53.214;6.556;2023-01-28T06:18:35;3.40;99.90
51908;DHT22;39320;53.214;6.556;2023-01-28T06:21:00;3.70;99.90
51908;DHT22;39320;53.214;6.556;2023-01-28T06:23:26;3.40;99.90
51908;DHT22;39320;53.214;6.556;2023-01-28T06:25:56;3.40;99.90
51908;DHT22;39320;53.214;6.556;2023-01-28T06:28:22;3.40;99.90
51908;DHT22;39320;53.214;6.556;2023-01-28T06:30:50;3.40;99.90
51908;DHT22;39320;53.214;6.556;2023-01-28T06:33:17;3.40;99.90
51908;DHT22;39320;53.214;6.556;2023-01-28T06:35:42;3.40;99.90
51908;DHT22;39320;53.214;6.556;2023-01-28T06:38:09;3.50;99.90
51908;DHT22;39320;53.214;6.556;2023-01-28T06:40:35;3.50;99.90
51908;DHT22;39320;53.214;6.556;2023-01-28T06:43:01;4.40;99.90
51908;DHT22;39320;53.214;6.556;2023-01-28T06:45:27;3.40;99.90
51908;DHT22;39320;53.214;6.556;2023-01-28T06:47:53;4.40;99.90
51908;DHT22;39320;53.214;6.556;2023-01-28T06:50:18;3.40;99.90
51908;DHT22;39320;53.214;6.556;2023-01-28T06:52:44;3.30;99.90
51908;DHT22;39320;53.214;6.556;2023-01-28T06:55:10;4.00;99.90
51908;DHT22;39320;53.214;6.556;2023-01-28T06:57:39;3.30;99.90
51908;DHT22;39320;53.214;6.556;2023-01-28T07:00:10;3.30;99.90
51908;DHT22;39320;53.214;6.556;2023-01-28T07:02:38;3.30;99.90
51908;DHT22;39320;53.214;6.556;2023-01-28T07:05:05;3.30;99.90
51908;DHT22;39320;53.214;6.556;2023-01-28T07:07:31;3.30;99.90
51908;DHT22;39320;53.214;6.556;2023-01-28T07:09:57;3.20;99.90
51908;DHT22;39320;53.214;6.556;2023-01-28T07:12:23;3.20;99.90
51908;DHT22;39320;53.214;6.556;2023-01-28T07:14:49;3.20;99.90
51908;DHT22;39320;53.214;6.556;2023-01-28T07:17:14;3.10;99.90
51908;DHT22;39320;53.214;6.556;2023-01-28T07:19:40;3.10;99.90
51908;DHT22;39320;53.214;6.556;2023-01-28T07:22:06;3.10;99.90
51908;DHT22;39320;53.214;6.556;2023-01-28T07:24:31;3.10;99.90
51908;DHT22;39320;53.214;6.556;2023-01-28T07:26:58;3.20;99.90
51908;DHT22;39320;53.214;6.556;2023-01-28T07:29:24;4.00;99.90
51908;DHT22;39320;53.214;6.556;2023-01-28T07:31:49;3.20;99.90
51908;DHT22;39320;53.214;6.556;2023-01-28T07:34:15;4.20;99.90
51908;DHT22;39320;53.214;6.556;2023-01-28T07:36:41;3.20;99.90
51908;DHT22;39320;53.214;6.556;2023-01-28T07:39:07;4.20;99.90
51908;DHT22;39320;53.214;6.556;2023-01-28T07:41:33;3.10;99.90
51908;DHT22;39320;53.214;6.556;2023-01-28T07:43:58;3.10;99.90
51908;DHT22;39320;53.214;6.556;2023-01-28T07:46:24;3.70;99.90
51908;DHT22;39320;53.214;6.556;2023-01-28T07:48:50;3.30;99.90
51908;DHT22;39320;53.214;6.556;2023-01-28T07:51:16;3.00;99.90
51908;DHT22;39320;53.214;6.556;2023-01-28T07:53:42;2.80;99.90
51908;DHT22;39320;53.214;6.556;2023-01-28T07:56:07;2.90;99.90
51908;DHT22;39320;53.214;6.556;2023-01-28T07:58:33;2.90;99.90
51908;DHT22;39320;53.214;6.556;2023-01-28T08:00:59;2.90;99.90
51908;DHT22;39320;53.214;6.556;2023-01-28T08:03:27;2.80;99.90
51908;DHT22;39320;53.214;6.556;2023-01-28T08:05:55;2.90;99.90
51908;DHT22;39320;53.214;6.556;2023-01-28T08:08:21;2.90;99.90
51908;DHT22;39320;53.214;6.556;2023-01-28T08:10:47;2.90;99.90
51908;DHT22;39320;53.214;6.556;2023-01-28T08:13:15;3.00;99.90
51908;DHT22;39320;53.214;6.556;2023-01-28T08:15:41;3.00;99.90
51908;DHT22;39320;53.214;6.556;2023-01-28T08:18:08;3.00;99.90
51908;DHT22;39320;53.214;6.556;2023-01-28T08:20:34;3.20;99.90
51908;DHT22;39320;53.214;6.556;2023-01-28T08:23:12;3.10;99.90
51908;DHT22;39320;53.214;6.556;2023-01-28T08:25:38;3.20;99.90
51908;DHT22;39320;53.214;6.556;2023-01-28T08:28:05;3.20;99.90
51908;DHT22;39320;53.214;6.556;2023-01-28T08:30:31;3.30;99.90
51908;DHT22;39320;53.214;6.556;2023-01-28T08:32:58;3.30;99.90
51908;DHT22;39320;53.214;6.556;2023-01-28T08:35:25;3.30;99.90
51908;DHT22;39320;53.214;6.556;2023-01-28T08:37:52;3.30;99.90
51908;DHT22;39320;53.214;6.556;2023-01-28T08:40:19;3.40;99.90
51908;DHT22;39320;53.214;6.556;2023-01-28T08:42:49;3.40;99.90
51908;DHT22;39320;53.214;6.556;2023-01-28T08:45:16;3.40;99.90
51908;DHT22;39320;53.214;6.556;2023-01-28T08:48:03;3.40;99.90
51908;DHT22;39320;53.214;6.556;2023-01-28T08:50:35;3.80;99.90
51908;DHT22;39320;53.214;6.556;2023-01-28T08:53:04;3.40;99.90
51908;DHT22;39320;53.214;6.556;2023-01-28T08:55:30;3.40;99.90
51908;DHT22;39320;53.214;6.556;2023-01-28T08:57:56;3.40;99.90
51908;DHT22;39320;53.214;6.556;2023-01-28T09:00:22;3.40;99.90
51908;DHT22;39320;53.214;6.556;2023-01-28T09:02:51;3.30;99.90
51908;DHT22;39320;53.214;6.556;2023-01-28T09:05:18;3.80;99.90
51908;DHT22;39320;53.214;6.556;2023-01-28T09:07:43;3.20;99.90
51908;DHT22;39320;53.214;6.556;2023-01-28T09:10:10;3.20;99.90
51908;DHT22;39320;53.214;6.556;2023-01-28T09:12:35;3.10;99.90
51908;DHT22;39320;53.214;6.556;2023-01-28T09:15:01;3.10;99.90
51908;DHT22;39320;53.214;6.556;2023-01-28T09:17:27;3.20;99.90
51908;DHT22;39320;53.214;6.556;2023-01-28T09:19:53;3.10;99.90
51908;DHT22;39320;53.214;6.556;2023-01-28T09:22:19;3.10;99.90
51908;DHT22;39320;53.214;6.556;2023-01-28T09:24:44;3.10;99.90
51908;DHT22;39320;53.214;6.556;2023-01-28T09:27:10;3.20;99.90
51908;DHT22;39320;53.214;6.556;2023-01-28T09:29:36;3.20;99.90
51908;DHT22;39320;53.214;6.556;2023-01-28T09:32:06;3.20;99.90
51908;DHT22;39320;53.214;6.556;2023-01-28T09:34:32;3.30;99.90
51908;DHT22;39320;53.214;6.556;2023-01-28T09:36:58;3.30;99.90
51908;DHT22;39320;53.214;6.556;2023-01-28T09:39:24;3.30;99.90
51908;DHT22;39320;53.214;6.556;2023-01-28T09:45:06;3.40;99.90
51908;DHT22;39320;53.214;6.556;2023-01-28T09:47:37;3.90;99.90
51908;DHT22;39320;53.214;6.556;2023-01-28T09:50:11;3.50;99.90
51908;DHT22;39320;53.214;6.556;2023-01-28T09:52:39;3.50;99.90
51908;DHT22;39320;53.214;6.556;2023-01-28T09:55:33;3.50;99.90
51908;DHT22;39320;53.214;6.556;2023-01-28T09:58:00;3.50;99.90
51908;DHT22;39320;53.214;6.556;2023-01-28T10:09:15;3.50;99.90
51908;DHT22;39320;53.214;6.556;2023-01-28T10:17:16;3.60;99.90
51908;DHT22;39320;53.214;6.556;2023-01-28T10:19:55;3.60;99.90
51908;DHT22;39320;53.214;6.556;2023-01-28T10:22:25;3.70;99.90
51908;DHT22;39320;53.214;6.556;2023-01-28T10:24:56;4.60;99.90
51908;DHT22;39320;53.214;6.556;2023-01-28T10:27:29;3.80;99.90
51908;DHT22;39320;53.214;6.556;2023-01-28T10:29:57;3.80;99.90
51908;DHT22;39320;53.214;6.556;2023-01-28T10:32:30;3.90;99.90
51908;DHT22;39320;53.214;6.556;2023-01-28T10:34:57;4.00;99.90
51908;DHT22;39320;53.214;6.556;2023-01-28T10:37:30;4.10;99.90
51908;DHT22;39320;53.214;6.556;2023-01-28T10:39:58;4.10;99.90
51908;DHT22;39320;53.214;6.556;2023-01-28T10:42:30;4.10;99.90
51908;DHT22;39320;53.214;6.556;2023-01-28T10:45:26;4.20;99.90
51908;DHT22;39320;53.214;6.556;2023-01-28T10:47:55;4.20;99.90
51908;DHT22;39320;53.214;6.556;2023-01-28T10:50:26;4.30;99.90
51908;DHT22;39320;53.214;6.556;2023-01-28T10:55:23;4.30;99.90
51908;DHT22;39320;53.214;6.556;2023-01-28T10:57:52;4.30;99.90
51908;DHT22;39320;53.214;6.556;2023-01-28T11:02:47;4.40;99.90
51908;DHT22;39320;53.214;6.556;2023-01-28T11:05:25;4.60;99.90
51908;DHT22;39320;53.214;6.556;2023-01-28T11:08:14;4.50;99.90
51908;DHT22;39320;53.214;6.556;2023-01-28T11:10:41;4.40;99.90
51908;DHT22;39320;53.214;6.556;2023-01-28T11:16:16;4.40;99.90
51908;DHT22;39320;53.214;6.556;2023-01-28T11:19:03;4.40;99.90
51908;DHT22;39320;53.214;6.556;2023-01-28T11:21:32;4.40;99.90
51908;DHT22;39320;53.214;6.556;2023-01-28T11:24:02;4.40;99.90
51908;DHT22;39320;53.214;6.556;2023-01-28T11:26:37;4.40;99.90
51908;DHT22;39320;53.214;6.556;2023-01-28T11:29:04;4.40;99.90
51908;DHT22;39320;53.214;6.556;2023-01-28T11:31:38;4.40;99.90
51908;DHT22;39320;53.214;6.556;2023-01-28T11:34:05;4.50;99.90
51908;DHT22;39320;53.214;6.556;2023-01-28T11:36:34;4.40;99.90
51908;DHT22;39320;53.214;6.556;2023-01-28T11:39:03;4.50;99.90
51908;DHT22;39320;53.214;6.556;2023-01-28T11:41:40;4.40;99.90
51908;DHT22;39320;53.214;6.556;2023-01-28T11:49:30;4.40;99.90
51908;DHT22;39320;53.214;6.556;2023-01-28T12:08:45;4.40;99.90
51908;DHT22;39320;53.214;6.556;2023-01-28T12:11:24;4.40;99.90
51908;DHT22;39320;53.214;6.556;2023-01-28T12:17:16;4.40;99.90
51908;DHT22;39320;53.214;6.556;2023-01-28T12:31:03;4.50;99.90
51908;DHT22;39320;53.214;6.556;2023-01-28T12:34:10;4.50;99.90
51908;DHT22;39320;53.214;6.556;2023-01-28T12:44:51;4.90;99.90
51908;DHT22;39320;53.214;6.556;2023-01-28T12:47:23;5.00;99.90
51908;DHT22;39320;53.214;6.556;2023-01-28T12:50:35;5.20;99.90
51908;DHT22;39320;53.214;6.556;2023-01-28T12:55:47;5.20;99.90
51908;DHT22;39320;53.214;6.556;2023-01-28T12:58:22;5.30;99.90
51908;DHT22;39320;53.214;6.556;2023-01-28T13:00:54;5.90;99.90
51908;DHT22;39320;53.214;6.556;2023-01-28T13:06:18;5.60;99.90
51908;DHT22;39320;53.214;6.556;2023-01-28T13:08:46;5.70;99.90
51908;DHT22;39320;53.214;6.556;2023-01-28T13:11:15;5.80;99.90
51908;DHT22;39320;53.214;6.556;2023-01-28T13:13:43;5.80;99.90
51908;DHT22;39320;53.214;6.556;2023-01-28T13:16:11;5.90;99.90
51908;DHT22;39320;53.214;6.556;2023-01-28T13:26:46;5.80;99.90
51908;DHT22;39320;53.214;6.556;2023-01-28T13:31:51;5.60;99.90
51908;DHT22;39320;53.214;6.556;2023-01-28T13:34:37;5.50;99.90
51908;DHT22;39320;53.214;6.556;2023-01-28T13:37:27;5.40;99.90
51908;DHT22;39320;53.214;6.556;2023-01-28T13:40:05;5.40;99.90
51908;DHT22;39320;53.214;6.556;2023-01-28T13:42:31;5.30;99.90
51908;DHT22;39320;53.214;6.556;2023-01-28T13:47:46;5.30;99.90
51908;DHT22;39320;53.214;6.556;2023-01-28T13:50:22;6.00;99.90
51908;DHT22;39320;53.214;6.556;2023-01-28T13:53:03;5.30;99.90
51908;DHT22;39320;53.214;6.556;2023-01-28T13:55:38;5.30;99.90
51908;DHT22;39320;53.214;6.556;2023-01-28T14:17:54;5.20;99.90
51908;DHT22;39320;53.214;6.556;2023-01-28T14:20:32;5.20;99.90
51908;DHT22;39320;53.214;6.556;2023-01-28T14:23:04;5.20;99.90
51908;DHT22;39320;53.214;6.556;2023-01-28T14:31:23;5.60;99.90
51908;DHT22;39320;53.214;6.556;2023-01-28T14:33:51;5.20;99.90
51908;DHT22;39320;53.214;6.556;2023-01-28T14:36:17;5.20;99.90
51908;DHT22;39320;53.214;6.556;2023-01-28T14:38:44;5.20;99.90
51908;DHT22;39320;53.214;6.556;2023-01-28T14:41:24;5.20;99.90
51908;DHT22;39320;53.214;6.556;2023-01-28T14:43:53;5.20;99.90
51908;DHT22;39320;53.214;6.556;2023-01-28T14:46:38;5.70;99.90
51908;DHT22;39320;53.214;6.556;2023-01-28T14:49:17;5.20;99.90
51908;DHT22;39320;53.214;6.556;2023-01-28T14:55:39;5.20;99.90
51908;DHT22;39320;53.214;6.556;2023-01-28T14:57:51;5.20;99.90
51908;DHT22;39320;53.214;6.556;2023-01-28T15:00:28;5.20;99.90
51908;DHT22;39320;53.214;6.556;2023-01-28T15:02:54;5.10;99.90
51908;DHT22;39320;53.214;6.556;2023-01-28T15:05:22;5.10;99.90
51908;DHT22;39320;53.214;6.556;2023-01-28T15:07:49;5.10;99.90
51908;DHT22;39320;53.214;6.556;2023-01-28T15:10:18;5.10;99.90
51908;DHT22;39320;53.214;6.556;2023-01-28T15:12:50;5.10;99.90
51908;DHT22;39320;53.214;6.556;2023-01-28T15:16:01;5.10;99.90
51908;DHT22;39320;53.214;6.556;2023-01-28T15:18:22;5.00;99.90
51908;DHT22;39320;53.214;6.556;2023-01-28T15:20:53;5.00;99.90
51908;DHT22;39320;53.214;6.556;2023-01-28T15:23:40;5.00;99.90
51908;DHT22;39320;53.214;6.556;2023-01-28T15:26:17;5.00;99.90
51908;DHT22;39320;53.214;6.556;2023-01-28T15:28:45;5.00;99.90
51908;DHT22;39320;53.214;6.556;2023-01-28T15:31:34;5.60;99.90
51908;DHT22;39320;53.214;6.556;2023-01-28T15:34:15;4.90;99.90
51908;DHT22;39320;53.214;6.556;2023-01-28T15:36:43;4.90;99.90
51908;DHT22;39320;53.214;6.556;2023-01-28T15:39:21;4.90;99.90
51908;DHT22;39320;53.214;6.556;2023-01-28T15:41:54;4.90;99.90
51908;DHT22;39320;53.214;6.556;2023-01-28T15:44:43;4.90;99.90
51908;DHT22;39320;53.214;6.556;2023-01-28T15:47:30;4.70;99.90
51908;DHT22;39320;53.214;6.556;2023-01-28T15:50:02;4.90;99.90
51908;DHT22;39320;53.214;6.556;2023-01-28T15:52:37;4.90;99.90
51908;DHT22;39320;53.214;6.556;2023-01-28T15:55:05;4.90;99.90
51908;DHT22;39320;53.214;6.556;2023-01-28T15:57:33;4.90;99.90
51908;DHT22;39320;53.214;6.556;2023-01-28T16:00:14;4.90;99.90
51908;DHT22;39320;53.214;6.556;2023-01-28T16:02:51;4.90;99.90
51908;DHT22;39320;53.214;6.556;2023-01-28T16:07:54;4.90;99.90
51908;DHT22;39320;53.214;6.556;2023-01-28T16:10:27;4.90;99.90
51908;DHT22;39320;53.214;6.556;2023-01-28T16:13:01;4.90;99.90
51908;DHT22;39320;53.214;6.556;2023-01-28T16:15:29;5.10;99.90
51908;DHT22;39320;53.214;6.556;2023-01-28T16:17:55;4.90;99.90
51908;DHT22;39320;53.214;6.556;2023-01-28T16:20:25;4.90;99.90
51908;DHT22;39320;53.214;6.556;2023-01-28T16:22:54;4.90;99.90
51908;DHT22;39320;53.214;6.556;2023-01-28T16:27:47;4.90;99.90
51908;DHT22;39320;53.214;6.556;2023-01-28T16:30:14;4.90;99.90
51908;DHT22;39320;53.214;6.556;2023-01-28T16:32:40;4.90;99.90
51908;DHT22;39320;53.214;6.556;2023-01-28T16:35:18;4.80;99.90
51908;DHT22;39320;53.214;6.556;2023-01-28T16:37:45;4.80;99.90
51908;DHT22;39320;53.214;6.556;2023-01-28T16:40:13;4.80;99.90
51908;DHT22;39320;53.214;6.556;2023-01-28T16:42:39;4.80;99.90
51908;DHT22;39320;53.214;6.556;2023-01-28T16:45:05;4.80;99.90
51908;DHT22;39320;53.214;6.556;2023-01-28T16:47:31;4.80;99.90
51908;DHT22;39320;53.214;6.556;2023-01-28T16:49:58;4.40;99.90
51908;DHT22;39320;53.214;6.556;2023-01-28T16:52:24;4.70;99.90
51908;DHT22;39320;53.214;6.556;2023-01-28T16:54:50;5.00;99.90
51908;DHT22;39320;53.214;6.556;2023-01-28T16:57:17;4.70;99.90
51908;DHT22;39320;53.214;6.556;2023-01-28T16:59:45;4.70;99.90
51908;DHT22;39320;53.214;6.556;2023-01-28T17:02:12;5.10;99.90
51908;DHT22;39320;53.214;6.556;2023-01-28T17:04:38;4.80;99.90
51908;DHT22;39320;53.214;6.556;2023-01-28T17:07:03;4.70;99.90
51908;DHT22;39320;53.214;6.556;2023-01-28T17:09:29;4.70;99.90
51908;DHT22;39320;53.214;6.556;2023-01-28T17:11:55;4.70;99.90
51908;DHT22;39320;53.214;6.556;2023-01-28T17:14:21;4.70;99.90
51908;DHT22;39320;53.214;6.556;2023-01-28T17:16:47;4.70;99.90
51908;DHT22;39320;53.214;6.556;2023-01-28T17:19:15;4.70;99.90
51908;DHT22;39320;53.214;6.556;2023-01-28T17:21:41;4.70;99.90
51908;DHT22;39320;53.214;6.556;2023-01-28T17:24:07;4.90;99.90
51908;DHT22;39320;53.214;6.556;2023-01-28T17:26:32;4.70;99.90
51908;DHT22;39320;53.214;6.556;2023-01-28T17:28:59;4.70;99.90
51908;DHT22;39320;53.214;6.556;2023-01-28T17:31:25;4.70;99.90
51908;DHT22;39320;53.214;6.556;2023-01-28T17:33:53;5.30;99.90
51908;DHT22;39320;53.214;6.556;2023-01-28T17:36:19;4.70;99.90
51908;DHT22;39320;53.214;6.556;2023-01-28T17:38:45;4.70;99.90
51908;DHT22;39320;53.214;6.556;2023-01-28T17:41:12;4.70;99.90
51908;DHT22;39320;53.214;6.556;2023-01-28T17:43:38;4.70;99.90
51908;DHT22;39320;53.214;6.556;2023-01-28T17:46:14;4.70;99.90
51908;DHT22;39320;53.214;6.556;2023-01-28T17:48:48;5.50;99.90
51908;DHT22;39320;53.214;6.556;2023-01-28T17:51:15;4.80;99.90
51908;DHT22;39320;53.214;6.556;2023-01-28T17:53:45;4.70;99.90
51908;DHT22;39320;53.214;6.556;2023-01-28T17:56:16;4.70;99.90
51908;DHT22;39320;53.214;6.556;2023-01-28T17:58:42;4.70;99.90
51908;DHT22;39320;53.214;6.556;2023-01-28T18:01:09;4.70;99.90
51908;DHT22;39320;53.214;6.556;2023-01-28T18:03:35;4.80;99.90
51908;DHT22;39320;53.214;6.556;2023-01-28T18:06:01;4.80;99.90
51908;DHT22;39320;53.214;6.556;2023-01-28T18:08:34;4.80;99.90
51908;DHT22;39320;53.214;6.556;2023-01-28T18:11:00;4.80;99.90
51908;DHT22;39320;53.214;6.556;2023-01-28T18:13:28;4.70;99.90
51908;DHT22;39320;53.214;6.556;2023-01-28T18:15:54;5.40;99.90
51908;DHT22;39320;53.214;6.556;2023-01-28T18:18:20;4.70;99.90
51908;DHT22;39320;53.214;6.556;2023-01-28T18:20:59;4.70;99.90
51908;DHT22;39320;53.214;6.556;2023-01-28T18:23:25;4.70;99.90
51908;DHT22;39320;53.214;6.556;2023-01-28T18:25:58;4.70;99.90